createdAt,value
2018-06-13T00:01:54.439Z,6.77
2018-06-13T00:04:24.494Z,6.80
2018-06-13T00:06:54.631Z,7.20
2018-06-13T00:09:25.052Z,6.50
2018-06-13T00:11:54.893Z,6.70
2018-06-13T00:14:25.240Z,6.40
2018-06-13T00:16:54.741Z,6.00
2018-06-13T00:19:24.584Z,6.20
2018-06-13T00:21:55.109Z,6.33
2018-06-13T00:24:24.893Z,6.10
2018-06-13T00:26:54.731Z,5.80
2018-06-13T00:29:24.311Z,6.77
2018-06-13T00:31:53.854Z,7.53
2018-06-13T00:34:23.779Z,6.13
2018-06-13T00:36:54.611Z,6.40
2018-06-13T00:39:22.975Z,7.13
2018-06-13T00:41:51.250Z,7.67
2018-06-13T00:44:19.571Z,7.13
2018-06-13T00:46:47.879Z,6.90
2018-06-13T00:49:16.195Z,6.90
2018-06-13T00:51:44.471Z,7.33
2018-06-13T00:54:12.786Z,7.67
2018-06-13T00:56:41.166Z,7.93
2018-06-13T00:59:09.475Z,7.07
2018-06-13T01:01:37.813Z,7.40
2018-06-13T01:04:06.187Z,7.23
2018-06-13T01:06:34.472Z,7.27
2018-06-13T01:09:02.870Z,7.53
2018-06-13T01:11:31.210Z,7.30
2018-06-13T01:13:59.542Z,7.13
2018-06-13T01:16:27.859Z,7.27
2018-06-13T01:18:56.682Z,7.13
2018-06-13T01:21:25.015Z,7.97
2018-06-13T01:23:53.395Z,7.40
2018-06-13T01:26:21.819Z,7.43
2018-06-13T01:28:50.157Z,6.87
2018-06-13T01:31:18.430Z,7.33
2018-06-13T01:33:46.750Z,7.40
2018-06-13T01:36:15.807Z,7.87
2018-06-13T01:38:44.163Z,7.27
2018-06-13T01:41:12.463Z,7.27
2018-06-13T01:43:40.819Z,7.50
2018-06-13T01:46:09.107Z,7.77
2018-06-13T01:48:37.742Z,7.73
2018-06-13T01:51:06.016Z,7.27
2018-06-13T01:53:34.355Z,7.67
2018-06-13T01:56:02.625Z,7.93
2018-06-13T01:58:30.969Z,7.40
2018-06-13T02:00:59.297Z,8.40
2018-06-13T02:03:27.643Z,8.10
2018-06-13T02:05:56.054Z,8.60
2018-06-13T02:08:24.396Z,8.50
2018-06-13T02:10:52.705Z,8.57
2018-06-13T02:13:20.974Z,7.97
2018-06-13T02:15:49.610Z,7.90
2018-06-13T02:18:18.010Z,8.17
2018-06-13T02:20:46.343Z,7.73
2018-06-13T02:23:14.626Z,7.83
2018-06-13T02:25:42.982Z,7.87
2018-06-13T02:28:11.294Z,7.43
2018-06-13T02:30:39.610Z,7.97
2018-06-13T02:33:07.890Z,7.10
2018-06-13T02:35:36.186Z,6.87
2018-06-13T02:38:04.462Z,7.27
2018-06-13T02:40:32.768Z,7.67
2018-06-13T02:43:01.031Z,7.37
2018-06-13T02:45:29.330Z,6.87
2018-06-13T02:47:57.592Z,7.40
2018-06-13T02:50:25.932Z,7.00
2018-06-13T02:52:54.231Z,7.57
2018-06-13T02:55:22.602Z,7.43
2018-06-13T02:57:50.873Z,7.67
2018-06-13T03:00:19.212Z,7.20
2018-06-13T03:02:47.478Z,8.10
2018-06-13T03:05:15.807Z,7.90
2018-06-13T03:07:44.123Z,7.90
2018-06-13T03:10:12.477Z,7.73
2018-06-13T03:12:40.829Z,7.37
2018-06-13T03:15:09.151Z,7.27
2018-06-13T03:17:37.510Z,7.70
2018-06-13T03:20:05.834Z,8.17
2018-06-13T03:22:34.103Z,7.77
2018-06-13T03:25:02.423Z,8.37
2018-06-13T03:27:30.755Z,8.10
2018-06-13T03:29:59.074Z,8.27
2018-06-13T03:32:27.382Z,7.60
2018-06-13T03:34:55.737Z,8.20
2018-06-13T03:37:24.022Z,8.50
2018-06-13T03:39:52.459Z,9.10
2018-06-13T03:42:20.847Z,9.00
2018-06-13T03:44:49.226Z,8.53
2018-06-13T03:47:17.550Z,8.93
2018-06-13T03:49:45.991Z,8.80
2018-06-13T03:52:14.307Z,9.40
2018-06-13T03:54:42.611Z,9.77
2018-06-13T03:57:10.903Z,8.73
2018-06-13T03:59:39.290Z,8.80
2018-06-13T04:02:07.611Z,9.47
2018-06-13T04:04:35.896Z,7.47
2018-06-13T04:07:04.502Z,7.30
2018-06-13T04:09:32.785Z,7.23
2018-06-13T04:12:02.853Z,6.73
2018-06-13T04:14:31.146Z,6.93
2018-06-13T04:16:58.606Z,7.07
2018-06-13T04:19:26.862Z,7.10
2018-06-13T04:21:55.281Z,6.73
2018-06-13T04:24:23.639Z,6.07
2018-06-13T04:26:51.951Z,6.20
2018-06-13T04:29:20.217Z,5.53
2018-06-13T04:31:48.567Z,5.60
2018-06-13T04:34:16.835Z,5.60
2018-06-13T04:36:45.184Z,5.00
2018-06-13T04:39:13.442Z,5.57
2018-06-13T04:41:41.810Z,5.37
2018-06-13T04:44:10.088Z,5.03
2018-06-13T04:46:38.429Z,5.03
2018-06-13T04:49:06.702Z,4.30
2018-06-13T04:51:36.000Z,4.20
2018-06-13T04:54:04.333Z,4.40
2018-06-13T04:56:32.641Z,3.60
2018-06-13T04:59:00.949Z,3.90
2018-06-13T05:01:29.258Z,3.50
2018-06-13T05:03:57.532Z,3.60
2018-06-13T05:06:25.910Z,3.37
2018-06-13T05:08:54.177Z,3.40
2018-06-13T05:11:23.042Z,3.30
2018-06-13T05:13:51.306Z,4.10
2018-06-13T05:16:19.663Z,4.13
2018-06-13T05:18:47.934Z,3.70
2018-06-13T05:21:17.054Z,4.00
2018-06-13T05:23:45.318Z,3.87
2018-06-13T05:26:13.655Z,3.77
2018-06-13T05:28:42.299Z,3.40
2018-06-13T05:31:10.575Z,3.60
2018-06-13T05:33:38.888Z,3.23
2018-06-13T05:36:07.203Z,3.90
2018-06-13T05:38:35.506Z,3.67
2018-06-13T05:41:03.816Z,3.77
2018-06-13T05:43:32.148Z,4.00
2018-06-13T05:46:07.236Z,3.60
2018-06-13T05:48:35.682Z,3.93
2018-06-13T05:51:04.015Z,3.43
2018-06-13T05:53:32.382Z,3.23
2018-06-13T05:56:01.387Z,4.07
2018-06-13T05:58:29.763Z,3.30
2018-06-13T06:00:58.107Z,3.27
2018-06-13T06:03:26.430Z,3.10
2018-06-13T06:05:55.039Z,3.07
2018-06-13T06:08:26.897Z,3.10
2018-06-13T06:10:55.252Z,2.80
2018-06-13T06:13:23.538Z,3.20
2018-06-13T06:15:51.926Z,2.67
2018-06-13T06:18:20.467Z,2.80
2018-06-13T06:20:48.756Z,3.00
2018-06-13T06:23:17.508Z,2.60
2018-06-13T06:25:46.191Z,3.20
2018-06-13T06:28:14.575Z,2.90
2018-06-13T06:30:42.915Z,3.13
2018-06-13T06:33:11.412Z,3.00
2018-06-13T06:35:39.676Z,2.97
2018-06-13T06:38:08.003Z,3.20
2018-06-13T06:40:36.272Z,3.00
2018-06-13T06:43:04.627Z,3.00
2018-06-13T06:45:32.996Z,3.07
2018-06-13T06:48:01.414Z,2.83
2018-06-13T06:50:29.740Z,3.50
2018-06-13T06:52:58.107Z,3.33
2018-06-13T06:55:26.542Z,3.13
2018-06-13T06:57:54.938Z,3.27
2018-06-13T07:00:23.216Z,3.43
2018-06-13T07:02:51.579Z,3.50
2018-06-13T07:05:19.866Z,3.23
2018-06-13T07:07:48.255Z,3.10
2018-06-13T07:10:16.561Z,3.10
2018-06-13T07:12:44.933Z,3.10
2018-06-13T07:15:13.230Z,3.30
2018-06-13T07:17:42.599Z,3.10
2018-06-13T07:20:10.883Z,3.63
2018-06-13T07:22:39.261Z,2.93
2018-06-13T07:25:07.538Z,3.60
2018-06-13T07:27:35.982Z,3.07
2018-06-13T07:30:04.318Z,2.73
2018-06-13T07:32:32.714Z,2.60
2018-06-13T07:35:01.098Z,2.90
2018-06-13T07:37:29.528Z,2.97
2018-06-13T07:39:57.955Z,2.90
2018-06-13T07:42:26.289Z,3.20
2018-06-13T07:44:54.671Z,3.30
2018-06-13T07:47:23.128Z,3.00
2018-06-13T07:49:51.560Z,3.20
2018-06-13T07:52:19.842Z,3.00
2018-06-13T07:54:48.658Z,2.97
2018-06-13T07:57:17.027Z,3.47
2018-06-13T07:59:45.742Z,3.57
2018-06-13T08:02:14.164Z,3.47
2018-06-13T08:04:42.510Z,3.30
2018-06-13T08:07:10.799Z,3.30
2018-06-13T08:09:39.189Z,3.57
2018-06-13T08:12:07.550Z,3.30
2018-06-13T08:14:35.918Z,3.33
2018-06-13T08:17:04.227Z,4.20
2018-06-13T08:19:32.613Z,3.83
2018-06-13T08:22:00.958Z,3.20
2018-06-13T08:24:29.791Z,3.33
2018-06-13T08:26:58.065Z,3.80
2018-06-13T08:29:26.409Z,2.93
2018-06-13T08:31:55.139Z,3.47
2018-06-13T08:34:23.526Z,3.40
2018-06-13T08:36:52.208Z,3.63
2018-06-13T08:39:20.891Z,3.30
2018-06-13T08:41:50.719Z,3.37
2018-06-13T08:44:19.444Z,3.60
2018-06-13T08:46:47.825Z,3.60
2018-06-13T08:49:16.201Z,3.60
2018-06-13T08:51:44.494Z,3.70
2018-06-13T08:54:12.817Z,3.30
2018-06-13T08:56:41.123Z,3.70
2018-06-13T08:59:09.447Z,4.13
2018-06-13T09:01:37.814Z,4.00
2018-06-13T09:04:06.249Z,3.90
2018-06-13T09:06:34.603Z,3.27
2018-06-13T09:09:02.942Z,3.30
2018-06-13T09:11:31.242Z,2.90
2018-06-13T09:13:59.577Z,3.03
2018-06-13T09:16:27.985Z,2.90
2018-06-13T09:18:56.317Z,3.00
2018-06-13T09:21:24.755Z,2.90
2018-06-13T09:23:53.050Z,2.67
2018-06-13T09:26:21.366Z,2.73
2018-06-13T09:28:49.759Z,3.30
2018-06-13T09:31:18.092Z,2.73
2018-06-13T09:33:46.463Z,3.20
2018-06-13T09:36:14.815Z,2.67
2018-06-13T09:38:44.058Z,2.40
2018-06-13T09:41:12.578Z,2.83
2018-06-13T09:43:40.856Z,3.27
2018-06-13T09:46:12.014Z,3.27
2018-06-13T09:48:37.510Z,2.63
2018-06-13T09:51:05.875Z,2.90
2018-06-13T09:53:34.271Z,2.93
2018-06-13T09:56:02.602Z,3.20
2018-06-13T09:58:35.046Z,2.97
2018-06-13T10:01:07.683Z,2.90
2018-06-13T10:03:36.310Z,3.23
2018-06-13T10:06:04.843Z,2.90
2018-06-13T10:08:33.124Z,2.83
2018-06-13T10:11:01.478Z,2.73
2018-06-13T10:13:29.814Z,2.90
2018-06-13T10:15:58.211Z,3.57
2018-06-13T10:18:27.267Z,3.10
2018-06-13T10:20:55.875Z,3.23
2018-06-13T10:23:24.145Z,3.20
2018-06-13T10:25:52.489Z,3.00
2018-06-13T10:28:20.750Z,3.37
2018-06-13T10:30:49.061Z,2.87
2018-06-13T10:33:17.329Z,3.33
2018-06-13T10:35:45.657Z,3.17
2018-06-13T10:38:13.930Z,3.30
2018-06-13T10:40:42.295Z,3.20
2018-06-13T10:43:10.656Z,3.30
2018-06-13T10:45:38.995Z,3.27
2018-06-13T10:48:07.270Z,3.43
2018-06-13T10:50:35.659Z,3.80
2018-06-13T10:53:04.935Z,3.37
2018-06-13T10:55:33.371Z,4.87
2018-06-13T10:58:01.650Z,4.03
2018-06-13T11:00:30.050Z,4.00
2018-06-13T11:02:58.440Z,4.20
2018-06-13T11:05:26.780Z,3.50
2018-06-13T11:07:55.087Z,3.47
2018-06-13T11:10:23.407Z,4.03
2018-06-13T11:12:51.802Z,3.87
2018-06-13T11:15:20.129Z,3.90
2018-06-13T11:17:48.541Z,3.20
2018-06-13T11:20:16.863Z,3.20
2018-06-13T11:22:45.568Z,3.17
2018-06-13T11:25:13.924Z,3.37
2018-06-13T11:27:42.235Z,2.90
2018-06-13T11:30:10.547Z,2.97
2018-06-13T11:32:38.930Z,2.80
2018-06-13T11:35:08.049Z,2.77
2018-06-13T11:37:37.394Z,2.10
2018-06-13T11:40:06.138Z,2.40
2018-06-13T11:42:34.681Z,2.70
2018-06-13T11:45:02.995Z,2.87
2018-06-13T11:47:31.367Z,2.83
2018-06-13T11:49:59.702Z,2.70
2018-06-13T11:52:28.022Z,2.70
2018-06-13T11:54:56.390Z,3.50
2018-06-13T11:57:24.886Z,3.40
2018-06-13T11:59:53.318Z,3.80
2018-06-13T12:02:21.712Z,3.50
2018-06-13T12:04:50.218Z,3.97
2018-06-13T12:07:18.901Z,3.33
2018-06-13T12:09:47.510Z,3.30
2018-06-13T12:12:16.103Z,3.90
2018-06-13T12:14:44.497Z,3.50
2018-06-13T12:17:12.881Z,3.37
2018-06-13T12:19:41.238Z,3.40
2018-06-13T12:22:09.594Z,3.20
2018-06-13T12:24:37.867Z,3.10
2018-06-13T12:27:06.286Z,3.50
2018-06-13T12:29:34.715Z,3.60
2018-06-13T12:32:03.067Z,3.47
2018-06-13T12:34:32.490Z,3.60
2018-06-13T12:37:00.889Z,3.40
2018-06-13T12:39:29.259Z,3.23
2018-06-13T12:41:57.566Z,3.43
2018-06-13T12:44:26.260Z,3.60
2018-06-13T12:46:54.799Z,3.60
2018-06-13T12:49:23.112Z,3.53
2018-06-13T12:51:51.598Z,3.67
2018-06-13T12:54:19.944Z,3.60
2018-06-13T12:56:48.277Z,3.33
2018-06-13T12:59:16.607Z,2.60
2018-06-13T13:01:44.932Z,2.10
2018-06-13T13:04:14.420Z,2.40
2018-06-13T13:06:42.779Z,2.50
2018-06-13T13:09:12.995Z,2.30
2018-06-13T13:11:41.646Z,2.30
2018-06-13T13:14:09.959Z,2.30
2018-06-13T13:16:38.315Z,2.00
2018-06-13T13:19:06.718Z,2.23
2018-06-13T13:21:35.066Z,2.30
2018-06-13T13:24:03.655Z,2.53
2018-06-13T13:26:31.969Z,2.10
2018-06-13T13:29:00.372Z,2.23
2018-06-13T13:31:28.778Z,2.10
2018-06-13T13:33:57.195Z,2.40
2018-06-13T13:36:25.574Z,2.40
2018-06-13T13:38:53.974Z,2.30
2018-06-13T13:41:22.300Z,2.13
2018-06-13T13:43:51.328Z,2.30
2018-06-13T13:46:19.778Z,2.33
2018-06-13T13:48:48.083Z,3.23
2018-06-13T13:51:16.529Z,2.60
2018-06-13T13:53:44.799Z,2.70
2018-06-13T13:56:13.298Z,2.80
2018-06-13T13:58:41.655Z,2.33
2018-06-13T14:01:10.016Z,5.97
2018-06-13T14:03:38.603Z,3.73
2018-06-13T14:06:06.954Z,2.97
2018-06-13T14:08:35.347Z,2.90
2018-06-13T14:11:03.687Z,2.80
2018-06-13T14:13:31.998Z,2.40
2018-06-13T14:16:00.316Z,2.40
2018-06-13T14:18:28.642Z,2.80
2018-06-13T14:20:56.913Z,3.00
2018-06-13T14:23:25.809Z,2.60
2018-06-13T14:25:54.098Z,2.70
2018-06-13T14:28:22.513Z,2.80
2018-06-13T14:30:50.799Z,2.70
2018-06-13T14:33:19.646Z,2.87
2018-06-13T14:35:48.154Z,2.77
2018-06-13T14:38:16.556Z,2.70
2018-06-13T14:40:44.960Z,2.50
2018-06-13T14:43:13.434Z,3.23
2018-06-13T14:45:41.854Z,2.90
2018-06-13T14:48:10.145Z,2.50
2018-06-13T14:50:38.564Z,2.67
2018-06-13T14:53:06.821Z,2.57
2018-06-13T14:55:41.380Z,2.57
2018-06-13T14:58:09.943Z,2.77
2018-06-13T15:00:38.286Z,2.20
2018-06-13T15:03:06.650Z,2.80
2018-06-13T15:05:35.022Z,3.10
2018-06-13T15:08:03.493Z,3.60
2018-06-13T15:10:31.798Z,3.70
2018-06-13T15:13:00.234Z,3.67
2018-06-13T15:15:28.591Z,3.90
2018-06-13T15:17:56.927Z,3.80
2018-06-13T15:20:25.311Z,4.13
2018-06-13T15:22:53.818Z,3.80
2018-06-13T15:25:22.222Z,3.83
2018-06-13T15:27:50.590Z,4.17
2018-06-13T15:30:18.898Z,4.07
2018-06-13T15:32:47.262Z,4.40
2018-06-13T15:35:15.685Z,4.40
2018-06-13T15:37:44.049Z,4.00
2018-06-13T15:40:12.373Z,4.40
2018-06-13T15:42:40.702Z,4.30
2018-06-13T15:45:09.027Z,4.37
2018-06-13T15:47:37.322Z,4.50
2018-06-13T15:50:05.690Z,4.27
2018-06-13T15:52:33.984Z,4.67
2018-06-13T15:55:02.316Z,4.67
2018-06-13T15:57:30.631Z,4.50
2018-06-13T15:59:58.989Z,4.00
2018-06-13T16:02:27.250Z,4.40
2018-06-13T16:04:55.535Z,4.30
2018-06-13T16:07:24.024Z,4.50
2018-06-13T16:09:52.339Z,4.53
2018-06-13T16:12:20.783Z,4.60
2018-06-13T16:14:49.107Z,4.17
2018-06-13T16:17:17.472Z,4.23
2018-06-13T16:19:45.814Z,4.10
2018-06-13T16:22:14.229Z,4.57
2018-06-13T16:24:42.498Z,4.37
2018-06-13T16:27:10.921Z,4.63
2018-06-13T16:29:39.440Z,4.57
2018-06-13T16:32:08.099Z,4.87
2018-06-13T16:34:36.379Z,4.43
2018-06-13T16:37:04.855Z,4.20
2018-06-13T16:39:33.203Z,3.90
2018-06-13T16:42:01.732Z,4.43
2018-06-13T16:44:30.071Z,4.60
2018-06-13T16:46:58.502Z,4.10
2018-06-13T16:49:26.787Z,4.50
2018-06-13T16:52:02.150Z,4.03
2018-06-13T16:54:42.583Z,4.30
2018-06-13T16:57:12.373Z,4.90
2018-06-13T16:59:41.656Z,3.80
2018-06-13T17:02:18.937Z,4.83
2018-06-13T17:04:48.711Z,4.53
2018-06-13T17:07:18.437Z,4.47
2018-06-13T17:09:48.169Z,4.60
2018-06-13T17:12:17.035Z,4.40
2018-06-13T17:14:45.784Z,3.93
2018-06-13T17:17:27.606Z,4.60
2018-06-13T17:20:02.814Z,4.20
2018-06-13T17:22:31.234Z,4.30
2018-06-13T17:24:59.550Z,4.60
2018-06-13T17:27:27.960Z,4.13
2018-06-13T17:29:56.657Z,4.43
2018-06-13T17:32:25.731Z,3.80
2018-06-13T17:34:58.593Z,3.80
2018-06-13T17:37:27.288Z,4.00
2018-06-13T17:39:55.614Z,4.13
2018-06-13T17:42:24.027Z,3.90
2018-06-13T17:44:52.355Z,4.23
2018-06-13T17:47:20.675Z,4.37
2018-06-13T17:49:49.062Z,4.30
2018-06-13T17:52:17.618Z,4.50
2018-06-13T17:54:46.066Z,3.90
2018-06-13T17:57:14.411Z,4.70
2018-06-13T17:59:42.689Z,4.00
2018-06-13T18:02:11.828Z,4.73
2018-06-13T18:04:41.026Z,4.50
2018-06-13T18:07:09.555Z,4.40
2018-06-13T18:09:38.037Z,4.50
2018-06-13T18:12:06.368Z,3.77
2018-06-13T18:14:34.766Z,4.00
2018-06-13T18:17:03.122Z,4.40
2018-06-13T18:19:31.833Z,4.57
2018-06-13T18:22:00.213Z,4.40
2018-06-13T18:24:32.923Z,5.00
2018-06-13T18:27:02.514Z,4.17
2018-06-13T18:29:31.571Z,4.23
2018-06-13T18:32:00.873Z,5.53
2018-06-13T18:34:29.290Z,4.20
2018-06-13T18:36:58.757Z,4.20
2018-06-13T18:39:27.109Z,4.30
2018-06-13T18:41:55.422Z,3.87
2018-06-13T18:44:23.787Z,4.10
2018-06-13T18:46:52.298Z,4.17
2018-06-13T18:49:22.167Z,4.60
2018-06-13T18:51:52.277Z,4.03
2018-06-13T18:54:20.604Z,4.20
2018-06-13T18:56:49.282Z,4.03
2018-06-13T18:59:17.591Z,4.37
2018-06-13T19:01:46.223Z,4.13
2018-06-13T19:04:14.607Z,4.27
2018-06-13T19:06:43.361Z,4.57
2018-06-13T19:09:12.195Z,4.20
2018-06-13T19:11:41.390Z,3.80
2018-06-13T19:14:10.532Z,4.03
2018-06-13T19:16:39.672Z,4.03
2018-06-13T19:19:08.479Z,3.60
2018-06-13T19:21:38.010Z,3.93
2018-06-13T19:24:06.643Z,4.10
2018-06-13T19:26:34.958Z,5.87
2018-06-13T19:29:03.314Z,4.27
2018-06-13T19:31:31.863Z,4.10
2018-06-13T19:34:00.183Z,4.23
2018-06-13T19:36:28.550Z,4.00
2018-06-13T19:38:57.009Z,4.43
2018-06-13T19:41:25.339Z,4.00
2018-06-13T19:43:56.498Z,4.23
2018-06-13T19:46:24.866Z,4.10
2018-06-13T19:48:54.319Z,4.00
2018-06-13T19:51:22.658Z,4.00
2018-06-13T19:53:56.426Z,4.10
2018-06-13T19:56:29.083Z,4.80
2018-06-13T19:58:57.643Z,4.83
2018-06-13T20:01:26.091Z,4.43
2018-06-13T20:03:59.781Z,4.10
2018-06-13T20:06:28.190Z,4.37
2018-06-13T20:08:56.513Z,4.00
2018-06-13T20:11:24.849Z,4.70
2018-06-13T20:13:58.539Z,4.13
2018-06-13T20:16:43.656Z,4.50
2018-06-13T20:19:17.391Z,4.63
2018-06-13T20:21:45.811Z,4.10
2018-06-13T20:24:14.228Z,4.40
2018-06-13T20:26:47.958Z,4.20
2018-06-13T20:29:21.802Z,4.90
2018-06-13T20:31:53.123Z,4.50
2018-06-13T20:34:21.620Z,4.47
2018-06-13T20:36:49.923Z,4.43
2018-06-13T20:39:18.812Z,4.60
2018-06-13T20:41:47.235Z,4.40
2018-06-13T20:44:15.617Z,4.50
2018-06-13T20:46:44.151Z,4.63
2018-06-13T20:49:12.470Z,4.27
2018-06-13T20:51:40.773Z,4.30
2018-06-13T20:54:09.063Z,4.70
2018-06-13T20:56:37.422Z,4.10
2018-06-13T20:59:05.895Z,4.50
2018-06-13T21:01:34.287Z,4.33
2018-06-13T21:04:02.626Z,4.23
2018-06-13T21:06:30.995Z,4.30
2018-06-13T21:08:59.286Z,4.10
2018-06-13T21:11:27.649Z,4.27
2018-06-13T21:13:55.943Z,4.30
2018-06-13T21:16:24.318Z,4.37
2018-06-13T21:18:52.628Z,4.70
2018-06-13T21:21:20.948Z,4.40
2018-06-13T21:23:49.308Z,4.17
2018-06-13T21:26:17.739Z,4.20
2018-06-13T21:28:46.057Z,4.20
2018-06-13T21:31:14.589Z,4.43
2018-06-13T21:33:42.846Z,4.20
2018-06-13T21:36:11.173Z,4.53
2018-06-13T21:38:39.540Z,4.43
2018-06-13T21:41:07.879Z,4.50
2018-06-13T21:43:36.268Z,4.50
2018-06-13T21:46:04.607Z,4.37
2018-06-13T21:48:32.963Z,4.07
2018-06-13T21:51:01.317Z,4.30
2018-06-13T21:53:29.755Z,3.80
2018-06-13T21:55:58.086Z,4.13
2018-06-13T21:58:26.404Z,4.33
2018-06-13T22:00:55.263Z,4.00
2018-06-13T22:03:23.803Z,4.20
2018-06-13T22:05:52.129Z,4.20
2018-06-13T22:08:20.407Z,4.27
2018-06-13T22:10:48.778Z,4.70
2018-06-13T22:13:17.058Z,4.83
2018-06-13T22:15:45.859Z,4.37
2018-06-13T22:18:14.210Z,4.83
2018-06-13T22:20:42.595Z,4.03
2018-06-13T22:23:10.905Z,4.13
2018-06-13T22:25:39.231Z,4.33
2018-06-13T22:28:07.524Z,4.40
2018-06-13T22:30:35.855Z,4.30
2018-06-13T22:33:04.163Z,4.37
2018-06-13T22:35:32.690Z,4.27
2018-06-13T22:38:01.007Z,4.30
2018-06-13T22:40:29.336Z,4.43
2018-06-13T22:42:57.634Z,4.30
2018-06-13T22:45:26.034Z,3.73
2018-06-13T22:47:54.338Z,3.97
2018-06-13T22:50:22.678Z,4.40
2018-06-13T22:52:51.013Z,4.83
2018-06-13T22:55:19.458Z,4.87
2018-06-13T22:57:48.161Z,4.10
2018-06-13T23:00:29.592Z,4.60
2018-06-13T23:02:57.902Z,4.53
2018-06-13T23:05:26.223Z,4.43
2018-06-13T23:07:54.929Z,4.63
2018-06-13T23:10:23.221Z,4.80
2018-06-13T23:12:51.731Z,4.50
2018-06-13T23:15:20.005Z,4.20
2018-06-13T23:17:48.332Z,5.00
2018-06-13T23:20:16.727Z,4.33
2018-06-13T23:22:45.002Z,4.20
2018-06-13T23:25:13.383Z,4.50
2018-06-13T23:27:41.771Z,4.57
2018-06-13T23:30:10.066Z,4.60
2018-06-13T23:32:38.463Z,4.80
2018-06-13T23:35:06.758Z,4.57
2018-06-13T23:37:35.079Z,4.47
2018-06-13T23:40:03.374Z,4.07
2018-06-13T23:42:31.757Z,4.40
2018-06-13T23:45:00.056Z,4.30
2018-06-13T23:47:28.570Z,4.70
2018-06-13T23:49:57.050Z,5.03
2018-06-13T23:52:25.379Z,4.20
2018-06-13T23:54:53.666Z,3.97
2018-06-13T23:57:21.982Z,4.37
2018-06-13T23:59:50.271Z,4.17
